sensor_id;sensor_type;location;lat;lon;timestamp;P1;durP1;ratioP1;P2;durP2;ratioP2
70560;SDS011;58109;53.570;10.084;2022-10-31T00:00:47;44.73;;;24.90;;
70560;SDS011;58109;53.570;10.084;2022-10-31T00:03:13;54.87;;;27.20;;
70560;SDS011;58109;53.570;10.084;2022-10-31T00:05:48;53.37;;;26.90;;
70560;SDS011;58109;53.570;10.084;2022-10-31T00:08:17;60.97;;;27.33;;
70560;SDS011;58109;53.570;10.084;2022-10-31T00:10:43;48.67;;;27.67;;
70560;SDS011;58109;53.570;10.084;2022-10-31T00:13:09;51.17;;;27.03;;
70560;SDS011;58109;53.570;10.084;2022-10-31T00:15:35;47.43;;;26.53;;
70560;SDS011;58109;53.570;10.084;2022-10-31T00:18:07;49.80;;;25.57;;
70560;SDS011;58109;53.570;10.084;2022-10-31T00:20:33;49.53;;;25.63;;
70560;SDS011;58109;53.570;10.084;2022-10-31T00:22:59;46.87;;;25.50;;
70560;SDS011;58109;53.570;10.084;2022-10-31T00:25:26;52.63;;;25.40;;
70560;SDS011;58109;53.570;10.084;2022-10-31T00:27:52;39.50;;;22.77;;
70560;SDS011;58109;53.570;10.084;2022-10-31T00:30:17;41.33;;;23.77;;
70560;SDS011;58109;53.570;10.084;2022-10-31T00:32:43;42.90;;;21.53;;
70560;SDS011;58109;53.570;10.084;2022-10-31T00:35:08;38.27;;;20.70;;
70560;SDS011;58109;53.570;10.084;2022-10-31T00:37:33;39.90;;;21.23;;
70560;SDS011;58109;53.570;10.084;2022-10-31T00:40:01;33.33;;;19.53;;
70560;SDS011;58109;53.570;10.084;2022-10-31T00:42:26;37.37;;;20.80;;
70560;SDS011;58109;53.570;10.084;2022-10-31T00:44:52;38.20;;;19.63;;
70560;SDS011;58109;53.570;10.084;2022-10-31T00:47:17;28.90;;;17.90;;
70560;SDS011;58109;53.570;10.084;2022-10-31T00:49:45;42.23;;;22.23;;
70560;SDS011;58109;53.570;10.084;2022-10-31T00:52:10;42.93;;;23.77;;
70560;SDS011;58109;53.570;10.084;2022-10-31T00:54:35;46.07;;;21.97;;
70560;SDS011;58109;53.570;10.084;2022-10-31T00:57:03;44.70;;;20.90;;
70560;SDS011;58109;53.570;10.084;2022-10-31T00:59:29;31.90;;;19.40;;
70560;SDS011;58109;53.570;10.084;2022-10-31T01:01:54;36.07;;;18.00;;
70560;SDS011;58109;53.570;10.084;2022-10-31T01:04:19;29.87;;;18.70;;
70560;SDS011;58109;53.570;10.084;2022-10-31T01:06:47;41.03;;;19.70;;
70560;SDS011;58109;53.570;10.084;2022-10-31T01:09:13;40.27;;;18.43;;
70560;SDS011;58109;53.570;10.084;2022-10-31T01:11:40;30.87;;;18.53;;
70560;SDS011;58109;53.570;10.084;2022-10-31T01:14:09;29.80;;;17.83;;
70560;SDS011;58109;53.570;10.084;2022-10-31T01:16:36;35.43;;;17.50;;
70560;SDS011;58109;53.570;10.084;2022-10-31T01:19:04;29.30;;;17.20;;
70560;SDS011;58109;53.570;10.084;2022-10-31T01:21:32;26.63;;;16.67;;
70560;SDS011;58109;53.570;10.084;2022-10-31T01:23:57;32.43;;;16.87;;
70560;SDS011;58109;53.570;10.084;2022-10-31T01:26:24;27.30;;;17.10;;
70560;SDS011;58109;53.570;10.084;2022-10-31T01:28:52;32.53;;;16.70;;
70560;SDS011;58109;53.570;10.084;2022-10-31T01:31:19;28.33;;;16.60;;
70560;SDS011;58109;53.570;10.084;2022-10-31T01:33:45;24.63;;;15.73;;
70560;SDS011;58109;53.570;10.084;2022-10-31T01:36:21;23.53;;;14.90;;
70560;SDS011;58109;53.570;10.084;2022-10-31T01:38:47;31.63;;;15.40;;
70560;SDS011;58109;53.570;10.084;2022-10-31T01:41:14;23.73;;;15.17;;
70560;SDS011;58109;53.570;10.084;2022-10-31T01:43:47;27.13;;;15.37;;
70560;SDS011;58109;53.570;10.084;2022-10-31T01:46:33;27.73;;;16.17;;
70560;SDS011;58109;53.570;10.084;2022-10-31T01:49:04;33.53;;;19.00;;
70560;SDS011;58109;53.570;10.084;2022-10-31T01:51:33;34.43;;;18.33;;
70560;SDS011;58109;53.570;10.084;2022-10-31T01:54:04;36.57;;;18.73;;
70560;SDS011;58109;53.570;10.084;2022-10-31T01:56:34;28.90;;;17.00;;
70560;SDS011;58109;53.570;10.084;2022-10-31T01:59:02;39.57;;;19.50;;
70560;SDS011;58109;53.570;10.084;2022-10-31T02:01:30;41.40;;;20.03;;
70560;SDS011;58109;53.570;10.084;2022-10-31T02:03:55;36.77;;;18.17;;
70560;SDS011;58109;53.570;10.084;2022-10-31T02:06:25;37.27;;;17.87;;
70560;SDS011;58109;53.570;10.084;2022-10-31T02:08:57;28.60;;;17.17;;
70560;SDS011;58109;53.570;10.084;2022-10-31T02:11:27;32.87;;;17.93;;
70560;SDS011;58109;53.570;10.084;2022-10-31T02:13:55;38.30;;;19.00;;
70560;SDS011;58109;53.570;10.084;2022-10-31T02:16:21;33.83;;;18.17;;
70560;SDS011;58109;53.570;10.084;2022-10-31T02:18:53;32.57;;;18.60;;
70560;SDS011;58109;53.570;10.084;2022-10-31T02:21:35;54.27;;;19.57;;
70560;SDS011;58109;53.570;10.084;2022-10-31T02:43:05;39.17;;;19.20;;
70560;SDS011;58109;53.570;10.084;2022-10-31T02:45:48;45.77;;;20.57;;
70560;SDS011;58109;53.570;10.084;2022-10-31T02:48:18;42.40;;;21.67;;
70560;SDS011;58109;53.570;10.084;2022-10-31T02:50:47;49.00;;;21.27;;
70560;SDS011;58109;53.570;10.084;2022-10-31T02:53:35;40.63;;;19.27;;
70560;SDS011;58109;53.570;10.084;2022-10-31T02:56:22;44.70;;;21.80;;
70560;SDS011;58109;53.570;10.084;2022-10-31T02:58:52;51.77;;;24.13;;
70560;SDS011;58109;53.570;10.084;2022-10-31T03:09:43;53.30;;;21.87;;
70560;SDS011;58109;53.570;10.084;2022-10-31T03:15:12;44.83;;;22.33;;
70560;SDS011;58109;53.570;10.084;2022-10-31T03:17:48;46.93;;;21.40;;
70560;SDS011;58109;53.570;10.084;2022-10-31T03:20:28;68.07;;;22.27;;
70560;SDS011;58109;53.570;10.084;2022-10-31T03:22:59;37.83;;;20.53;;
70560;SDS011;58109;53.570;10.084;2022-10-31T03:25:26;44.37;;;20.57;;
70560;SDS011;58109;53.570;10.084;2022-10-31T03:27:52;45.83;;;22.70;;
70560;SDS011;58109;53.570;10.084;2022-10-31T03:30:20;41.07;;;19.80;;
70560;SDS011;58109;53.570;10.084;2022-10-31T03:32:47;39.37;;;20.80;;
70560;SDS011;58109;53.570;10.084;2022-10-31T03:35:15;54.43;;;21.00;;
70560;SDS011;58109;53.570;10.084;2022-10-31T03:38:20;54.60;;;23.60;;
70560;SDS011;58109;53.570;10.084;2022-10-31T03:40:48;46.47;;;23.93;;
70560;SDS011;58109;53.570;10.084;2022-10-31T03:43:17;41.00;;;21.50;;
70560;SDS011;58109;53.570;10.084;2022-10-31T03:45:45;58.57;;;23.23;;
70560;SDS011;58109;53.570;10.084;2022-10-31T03:48:14;47.03;;;22.47;;
70560;SDS011;58109;53.570;10.084;2022-10-31T03:51:16;48.00;;;23.00;;
70560;SDS011;58109;53.570;10.084;2022-10-31T03:53:49;54.43;;;22.60;;
70560;SDS011;58109;53.570;10.084;2022-10-31T03:56:26;49.90;;;22.17;;
70560;SDS011;58109;53.570;10.084;2022-10-31T03:59:02;44.70;;;22.40;;
70560;SDS011;58109;53.570;10.084;2022-10-31T04:01:34;51.50;;;20.63;;
70560;SDS011;58109;53.570;10.084;2022-10-31T04:04:03;103.77;;;23.47;;
70560;SDS011;58109;53.570;10.084;2022-10-31T04:06:32;47.87;;;22.20;;
70560;SDS011;58109;53.570;10.084;2022-10-31T04:08:59;42.13;;;21.67;;
70560;SDS011;58109;53.570;10.084;2022-10-31T04:11:28;53.70;;;21.57;;
70560;SDS011;58109;53.570;10.084;2022-10-31T04:13:56;44.57;;;22.10;;
70560;SDS011;58109;53.570;10.084;2022-10-31T04:16:22;55.73;;;23.20;;
70560;SDS011;58109;53.570;10.084;2022-10-31T04:18:48;46.23;;;21.20;;
70560;SDS011;58109;53.570;10.084;2022-10-31T04:21:14;50.33;;;22.33;;
70560;SDS011;58109;53.570;10.084;2022-10-31T04:23:39;43.43;;;20.80;;
70560;SDS011;58109;53.570;10.084;2022-10-31T04:26:07;55.67;;;23.03;;
70560;SDS011;58109;53.570;10.084;2022-10-31T04:28:35;47.40;;;22.83;;
70560;SDS011;58109;53.570;10.084;2022-10-31T04:31:00;54.40;;;21.43;;
70560;SDS011;58109;53.570;10.084;2022-10-31T04:33:25;41.93;;;20.70;;
70560;SDS011;58109;53.570;10.084;2022-10-31T04:35:51;47.20;;;20.90;;
70560;SDS011;58109;53.570;10.084;2022-10-31T04:38:16;43.70;;;20.60;;
70560;SDS011;58109;53.570;10.084;2022-10-31T04:40:45;44.80;;;23.50;;
70560;SDS011;58109;53.570;10.084;2022-10-31T04:43:13;53.97;;;23.90;;
70560;SDS011;58109;53.570;10.084;2022-10-31T04:45:38;46.53;;;22.00;;
70560;SDS011;58109;53.570;10.084;2022-10-31T04:48:04;48.87;;;22.73;;
70560;SDS011;58109;53.570;10.084;2022-10-31T04:50:29;47.00;;;21.77;;
70560;SDS011;58109;53.570;10.084;2022-10-31T04:52:57;50.83;;;22.20;;
70560;SDS011;58109;53.570;10.084;2022-10-31T04:55:24;60.87;;;25.33;;
70560;SDS011;58109;53.570;10.084;2022-10-31T04:57:50;57.87;;;24.17;;
70560;SDS011;58109;53.570;10.084;2022-10-31T05:00:16;46.90;;;24.13;;
70560;SDS011;58109;53.570;10.084;2022-10-31T05:02:44;56.90;;;23.93;;
70560;SDS011;58109;53.570;10.084;2022-10-31T05:05:13;48.13;;;23.10;;
70560;SDS011;58109;53.570;10.084;2022-10-31T05:07:42;52.43;;;23.20;;
70560;SDS011;58109;53.570;10.084;2022-10-31T05:10:09;39.90;;;21.53;;
70560;SDS011;58109;53.570;10.084;2022-10-31T05:12:37;46.30;;;21.67;;
70560;SDS011;58109;53.570;10.084;2022-10-31T05:15:04;57.33;;;23.00;;
70560;SDS011;58109;53.570;10.084;2022-10-31T05:17:32;50.03;;;24.30;;
70560;SDS011;58109;53.570;10.084;2022-10-31T05:19:57;61.70;;;22.00;;
70560;SDS011;58109;53.570;10.084;2022-10-31T05:22:23;51.33;;;21.90;;
70560;SDS011;58109;53.570;10.084;2022-10-31T05:24:48;54.73;;;23.50;;
70560;SDS011;58109;53.570;10.084;2022-10-31T05:27:13;47.23;;;22.53;;
70560;SDS011;58109;53.570;10.084;2022-10-31T05:29:41;54.23;;;22.97;;
70560;SDS011;58109;53.570;10.084;2022-10-31T05:32:11;48.90;;;22.57;;
70560;SDS011;58109;53.570;10.084;2022-10-31T05:34:39;51.27;;;24.00;;
70560;SDS011;58109;53.570;10.084;2022-10-31T05:37:04;53.27;;;23.70;;
70560;SDS011;58109;53.570;10.084;2022-10-31T05:39:29;56.67;;;24.70;;
70560;SDS011;58109;53.570;10.084;2022-10-31T05:41:55;51.93;;;24.73;;
70560;SDS011;58109;53.570;10.084;2022-10-31T05:44:20;71.83;;;27.27;;
70560;SDS011;58109;53.570;10.084;2022-10-31T05:46:46;49.87;;;24.70;;
70560;SDS011;58109;53.570;10.084;2022-10-31T05:49:12;53.93;;;23.53;;
70560;SDS011;58109;53.570;10.084;2022-10-31T05:51:40;53.50;;;24.47;;
70560;SDS011;58109;53.570;10.084;2022-10-31T05:54:05;57.93;;;25.77;;
70560;SDS011;58109;53.570;10.084;2022-10-31T05:56:30;57.03;;;24.13;;
70560;SDS011;58109;53.570;10.084;2022-10-31T05:58:58;60.97;;;24.67;;
70560;SDS011;58109;53.570;10.084;2022-10-31T06:01:23;54.27;;;23.80;;
70560;SDS011;58109;53.570;10.084;2022-10-31T06:03:48;55.23;;;24.13;;
70560;SDS011;58109;53.570;10.084;2022-10-31T06:06:16;55.20;;;25.17;;
70560;SDS011;58109;53.570;10.084;2022-10-31T06:08:41;61.60;;;24.00;;
70560;SDS011;58109;53.570;10.084;2022-10-31T06:11:07;78.50;;;26.90;;
70560;SDS011;58109;53.570;10.084;2022-10-31T06:13:33;64.53;;;25.47;;
70560;SDS011;58109;53.570;10.084;2022-10-31T06:15:58;64.73;;;26.50;;
70560;SDS011;58109;53.570;10.084;2022-10-31T06:18:25;66.30;;;27.20;;
70560;SDS011;58109;53.570;10.084;2022-10-31T06:20:53;56.67;;;26.10;;
70560;SDS011;58109;53.570;10.084;2022-10-31T06:23:18;67.87;;;27.40;;
70560;SDS011;58109;53.570;10.084;2022-10-31T06:25:47;64.67;;;26.97;;
70560;SDS011;58109;53.570;10.084;2022-10-31T06:28:13;72.43;;;27.43;;
70560;SDS011;58109;53.570;10.084;2022-10-31T06:30:39;74.30;;;28.63;;
70560;SDS011;58109;53.570;10.084;2022-10-31T06:33:07;74.37;;;27.07;;
70560;SDS011;58109;53.570;10.084;2022-10-31T06:35:32;76.17;;;27.63;;
70560;SDS011;58109;53.570;10.084;2022-10-31T06:37:57;66.93;;;27.67;;
70560;SDS011;58109;53.570;10.084;2022-10-31T06:40:23;66.77;;;26.33;;
70560;SDS011;58109;53.570;10.084;2022-10-31T06:42:58;77.57;;;26.80;;
70560;SDS011;58109;53.570;10.084;2022-10-31T06:45:24;75.17;;;25.83;;
70560;SDS011;58109;53.570;10.084;2022-10-31T06:47:52;63.00;;;24.77;;
70560;SDS011;58109;53.570;10.084;2022-10-31T06:50:18;60.93;;;23.87;;
70560;SDS011;58109;53.570;10.084;2022-10-31T06:52:54;62.90;;;24.97;;
70560;SDS011;58109;53.570;10.084;2022-10-31T06:55:22;62.57;;;26.47;;
70560;SDS011;58109;53.570;10.084;2022-10-31T06:57:56;64.07;;;24.93;;
70560;SDS011;58109;53.570;10.084;2022-10-31T07:00:26;63.03;;;25.97;;
70560;SDS011;58109;53.570;10.084;2022-10-31T07:03:03;74.10;;;27.00;;
70560;SDS011;58109;53.570;10.084;2022-10-31T07:05:29;68.37;;;24.40;;
70560;SDS011;58109;53.570;10.084;2022-10-31T07:07:59;66.37;;;26.80;;
70560;SDS011;58109;53.570;10.084;2022-10-31T07:10:26;63.00;;;25.87;;
70560;SDS011;58109;53.570;10.084;2022-10-31T07:12:56;60.50;;;24.70;;
70560;SDS011;58109;53.570;10.084;2022-10-31T07:15:23;64.80;;;25.77;;
70560;SDS011;58109;53.570;10.084;2022-10-31T07:17:53;67.70;;;24.40;;
70560;SDS011;58109;53.570;10.084;2022-10-31T07:20:18;69.37;;;25.13;;
70560;SDS011;58109;53.570;10.084;2022-10-31T07:22:44;69.87;;;27.20;;
70560;SDS011;58109;53.570;10.084;2022-10-31T07:25:10;68.13;;;27.07;;
70560;SDS011;58109;53.570;10.084;2022-10-31T07:27:39;69.47;;;25.53;;
70560;SDS011;58109;53.570;10.084;2022-10-31T07:30:13;61.50;;;25.47;;
70560;SDS011;58109;53.570;10.084;2022-10-31T07:32:44;63.10;;;25.87;;
70560;SDS011;58109;53.570;10.084;2022-10-31T07:35:15;66.83;;;26.00;;
70560;SDS011;58109;53.570;10.084;2022-10-31T07:37:44;60.63;;;24.63;;
70560;SDS011;58109;53.570;10.084;2022-10-31T07:40:09;50.10;;;22.63;;
70560;SDS011;58109;53.570;10.084;2022-10-31T07:42:36;56.53;;;24.20;;
70560;SDS011;58109;53.570;10.084;2022-10-31T07:45:03;69.13;;;26.60;;
70560;SDS011;58109;53.570;10.084;2022-10-31T07:47:29;50.50;;;22.27;;
70560;SDS011;58109;53.570;10.084;2022-10-31T07:49:55;65.07;;;23.93;;
70560;SDS011;58109;53.570;10.084;2022-10-31T07:52:20;51.83;;;22.77;;
70560;SDS011;58109;53.570;10.084;2022-10-31T07:54:48;48.57;;;22.50;;
70560;SDS011;58109;53.570;10.084;2022-10-31T07:57:13;48.60;;;21.57;;
70560;SDS011;58109;53.570;10.084;2022-10-31T07:59:38;48.23;;;18.80;;
70560;SDS011;58109;53.570;10.084;2022-10-31T08:02:04;44.83;;;18.83;;
70560;SDS011;58109;53.570;10.084;2022-10-31T08:04:30;48.03;;;20.20;;
70560;SDS011;58109;53.570;10.084;2022-10-31T08:07:00;48.83;;;20.30;;
70560;SDS011;58109;53.570;10.084;2022-10-31T08:09:27;47.90;;;20.47;;
70560;SDS011;58109;53.570;10.084;2022-10-31T08:11:55;58.13;;;21.17;;
70560;SDS011;58109;53.570;10.084;2022-10-31T08:14:20;59.47;;;20.87;;
70560;SDS011;58109;53.570;10.084;2022-10-31T08:16:47;50.20;;;21.27;;
70560;SDS011;58109;53.570;10.084;2022-10-31T08:19:12;53.10;;;20.10;;
70560;SDS011;58109;53.570;10.084;2022-10-31T08:21:40;53.23;;;21.53;;
70560;SDS011;58109;53.570;10.084;2022-10-31T08:24:05;46.20;;;20.17;;
70560;SDS011;58109;53.570;10.084;2022-10-31T08:26:31;56.40;;;23.77;;
70560;SDS011;58109;53.570;10.084;2022-10-31T08:28:56;46.93;;;22.13;;
70560;SDS011;58109;53.570;10.084;2022-10-31T08:31:22;59.57;;;22.30;;
70560;SDS011;58109;53.570;10.084;2022-10-31T08:33:52;54.73;;;23.13;;
70560;SDS011;58109;53.570;10.084;2022-10-31T08:36:20;50.63;;;22.37;;
70560;SDS011;58109;53.570;10.084;2022-10-31T08:38:46;55.03;;;22.50;;
70560;SDS011;58109;53.570;10.084;2022-10-31T08:41:14;52.30;;;21.60;;
70560;SDS011;58109;53.570;10.084;2022-10-31T08:43:40;50.70;;;22.07;;
70560;SDS011;58109;53.570;10.084;2022-10-31T08:46:07;50.50;;;20.77;;
70560;SDS011;58109;53.570;10.084;2022-10-31T08:48:35;46.20;;;19.67;;
70560;SDS011;58109;53.570;10.084;2022-10-31T08:51:01;52.93;;;21.17;;
70560;SDS011;58109;53.570;10.084;2022-10-31T08:53:31;47.30;;;18.83;;
70560;SDS011;58109;53.570;10.084;2022-10-31T08:55:57;42.27;;;17.23;;
70560;SDS011;58109;53.570;10.084;2022-10-31T08:58:23;45.27;;;17.07;;
70560;SDS011;58109;53.570;10.084;2022-10-31T09:00:50;43.63;;;18.13;;
70560;SDS011;58109;53.570;10.084;2022-10-31T09:03:24;49.73;;;17.67;;
70560;SDS011;58109;53.570;10.084;2022-10-31T09:05:58;46.20;;;18.30;;
70560;SDS011;58109;53.570;10.084;2022-10-31T09:08:24;37.10;;;18.23;;
70560;SDS011;58109;53.570;10.084;2022-10-31T09:10:55;36.47;;;17.10;;
70560;SDS011;58109;53.570;10.084;2022-10-31T09:13:21;44.93;;;17.60;;
70560;SDS011;58109;53.570;10.084;2022-10-31T09:15:47;37.10;;;16.33;;
70560;SDS011;58109;53.570;10.084;2022-10-31T09:18:19;47.77;;;19.43;;
70560;SDS011;58109;53.570;10.084;2022-10-31T09:20:46;46.17;;;16.77;;
70560;SDS011;58109;53.570;10.084;2022-10-31T09:23:16;36.53;;;17.27;;
70560;SDS011;58109;53.570;10.084;2022-10-31T09:25:45;43.30;;;18.33;;
70560;SDS011;58109;53.570;10.084;2022-10-31T09:28:12;46.40;;;18.77;;
70560;SDS011;58109;53.570;10.084;2022-10-31T09:30:38;42.63;;;18.83;;
70560;SDS011;58109;53.570;10.084;2022-10-31T09:33:05;35.80;;;18.23;;
70560;SDS011;58109;53.570;10.084;2022-10-31T09:35:32;44.37;;;19.20;;
70560;SDS011;58109;53.570;10.084;2022-10-31T09:37:58;43.73;;;19.63;;
70560;SDS011;58109;53.570;10.084;2022-10-31T09:40:27;42.30;;;17.50;;
70560;SDS011;58109;53.570;10.084;2022-10-31T09:43:05;53.23;;;21.20;;
70560;SDS011;58109;53.570;10.084;2022-10-31T09:45:41;44.53;;;19.73;;
70560;SDS011;58109;53.570;10.084;2022-10-31T09:50:48;39.30;;;18.13;;
70560;SDS011;58109;53.570;10.084;2022-10-31T09:53:22;40.57;;;19.00;;
70560;SDS011;58109;53.570;10.084;2022-10-31T09:55:50;43.47;;;17.40;;
70560;SDS011;58109;53.570;10.084;2022-10-31T09:58:20;40.67;;;17.70;;
70560;SDS011;58109;53.570;10.084;2022-10-31T10:00:50;37.23;;;17.33;;
70560;SDS011;58109;53.570;10.084;2022-10-31T10:08:39;44.00;;;19.43;;
70560;SDS011;58109;53.570;10.084;2022-10-31T10:24:52;41.30;;;17.53;;
70560;SDS011;58109;53.570;10.084;2022-10-31T10:29:56;37.10;;;16.27;;
70560;SDS011;58109;53.570;10.084;2022-10-31T10:32:27;34.87;;;16.33;;
70560;SDS011;58109;53.570;10.084;2022-10-31T10:35:02;43.10;;;17.93;;
70560;SDS011;58109;53.570;10.084;2022-10-31T10:38:02;33.80;;;17.20;;
70560;SDS011;58109;53.570;10.084;2022-10-31T10:40:38;37.10;;;16.80;;
70560;SDS011;58109;53.570;10.084;2022-10-31T10:46:08;38.63;;;18.07;;
70560;SDS011;58109;53.570;10.084;2022-10-31T10:48:59;36.03;;;16.40;;
70560;SDS011;58109;53.570;10.084;2022-10-31T10:59:43;39.30;;;17.30;;
70560;SDS011;58109;53.570;10.084;2022-10-31T11:02:19;40.57;;;16.90;;
70560;SDS011;58109;53.570;10.084;2022-10-31T11:04:52;55.73;;;18.70;;
70560;SDS011;58109;53.570;10.084;2022-10-31T11:07:24;35.33;;;17.50;;
70560;SDS011;58109;53.570;10.084;2022-10-31T11:09:49;34.50;;;16.60;;
70560;SDS011;58109;53.570;10.084;2022-10-31T11:12:36;42.30;;;19.50;;
70560;SDS011;58109;53.570;10.084;2022-10-31T11:15:22;36.63;;;17.50;;
70560;SDS011;58109;53.570;10.084;2022-10-31T11:17:49;40.03;;;18.40;;
70560;SDS011;58109;53.570;10.084;2022-10-31T11:22:42;39.07;;;17.80;;
70560;SDS011;58109;53.570;10.084;2022-10-31T11:25:21;37.20;;;17.53;;
70560;SDS011;58109;53.570;10.084;2022-10-31T11:27:47;37.80;;;18.13;;
70560;SDS011;58109;53.570;10.084;2022-10-31T11:30:24;37.60;;;19.27;;
70560;SDS011;58109;53.570;10.084;2022-10-31T11:32:50;41.33;;;19.43;;
70560;SDS011;58109;53.570;10.084;2022-10-31T11:35:17;38.53;;;18.53;;
70560;SDS011;58109;53.570;10.084;2022-10-31T11:37:44;35.53;;;18.23;;
70560;SDS011;58109;53.570;10.084;2022-10-31T11:40:18;42.20;;;20.57;;
70560;SDS011;58109;53.570;10.084;2022-10-31T11:42:45;45.53;;;20.60;;
70560;SDS011;58109;53.570;10.084;2022-10-31T11:45:15;40.03;;;21.17;;
70560;SDS011;58109;53.570;10.084;2022-10-31T11:47:57;42.23;;;21.87;;
70560;SDS011;58109;53.570;10.084;2022-10-31T11:50:47;47.83;;;23.27;;
70560;SDS011;58109;53.570;10.084;2022-10-31T11:53:12;53.17;;;26.00;;
70560;SDS011;58109;53.570;10.084;2022-10-31T11:55:44;56.27;;;28.20;;
70560;SDS011;58109;53.570;10.084;2022-10-31T11:58:23;54.33;;;27.73;;
70560;SDS011;58109;53.570;10.084;2022-10-31T12:00:51;59.70;;;30.80;;
70560;SDS011;58109;53.570;10.084;2022-10-31T12:05:47;67.40;;;32.30;;
70560;SDS011;58109;53.570;10.084;2022-10-31T12:08:19;57.77;;;28.50;;
70560;SDS011;58109;53.570;10.084;2022-10-31T12:13:23;58.80;;;28.67;;
70560;SDS011;58109;53.570;10.084;2022-10-31T12:15:58;57.27;;;30.07;;
70560;SDS011;58109;53.570;10.084;2022-10-31T12:23:39;55.40;;;28.43;;
70560;SDS011;58109;53.570;10.084;2022-10-31T12:31:34;45.97;;;23.37;;
70560;SDS011;58109;53.570;10.084;2022-10-31T12:37:12;45.27;;;22.77;;
70560;SDS011;58109;53.570;10.084;2022-10-31T12:39:57;51.70;;;23.07;;
70560;SDS011;58109;53.570;10.084;2022-10-31T12:42:39;45.00;;;23.57;;
70560;SDS011;58109;53.570;10.084;2022-10-31T12:58:35;54.57;;;24.30;;
70560;SDS011;58109;53.570;10.084;2022-10-31T13:06:33;38.63;;;19.10;;
70560;SDS011;58109;53.570;10.084;2022-10-31T13:09:04;40.00;;;17.57;;
70560;SDS011;58109;53.570;10.084;2022-10-31T13:11:39;37.80;;;17.80;;
70560;SDS011;58109;53.570;10.084;2022-10-31T13:14:20;35.77;;;19.17;;
70560;SDS011;58109;53.570;10.084;2022-10-31T13:16:56;37.07;;;18.27;;
70560;SDS011;58109;53.570;10.084;2022-10-31T13:19:27;44.77;;;20.63;;
70560;SDS011;58109;53.570;10.084;2022-10-31T13:27:27;39.50;;;20.53;;
70560;SDS011;58109;53.570;10.084;2022-10-31T13:46:26;37.20;;;18.37;;
70560;SDS011;58109;53.570;10.084;2022-10-31T13:49:00;34.53;;;18.27;;
70560;SDS011;58109;53.570;10.084;2022-10-31T13:51:31;33.73;;;16.23;;
70560;SDS011;58109;53.570;10.084;2022-10-31T13:54:19;32.30;;;17.07;;
70560;SDS011;58109;53.570;10.084;2022-10-31T13:56:57;29.13;;;15.20;;
70560;SDS011;58109;53.570;10.084;2022-10-31T13:59:23;42.53;;;16.00;;
70560;SDS011;58109;53.570;10.084;2022-10-31T14:01:51;39.13;;;17.13;;
70560;SDS011;58109;53.570;10.084;2022-10-31T14:04:21;40.63;;;17.50;;
70560;SDS011;58109;53.570;10.084;2022-10-31T14:07:05;36.57;;;18.10;;
70560;SDS011;58109;53.570;10.084;2022-10-31T14:09:34;34.00;;;17.40;;
70560;SDS011;58109;53.570;10.084;2022-10-31T14:12:20;35.83;;;17.20;;
70560;SDS011;58109;53.570;10.084;2022-10-31T14:14:51;38.90;;;16.93;;
70560;SDS011;58109;53.570;10.084;2022-10-31T14:17:28;29.67;;;16.80;;
70560;SDS011;58109;53.570;10.084;2022-10-31T14:22:36;31.40;;;16.80;;
70560;SDS011;58109;53.570;10.084;2022-10-31T14:27:50;33.07;;;16.17;;
70560;SDS011;58109;53.570;10.084;2022-10-31T14:30:18;37.33;;;18.83;;
70560;SDS011;58109;53.570;10.084;2022-10-31T14:33:18;42.10;;;17.70;;
70560;SDS011;58109;53.570;10.084;2022-10-31T14:35:56;34.53;;;16.93;;
70560;SDS011;58109;53.570;10.084;2022-10-31T14:47:04;38.57;;;18.50;;
70560;SDS011;58109;53.570;10.084;2022-10-31T14:52:16;31.17;;;14.93;;
70560;SDS011;58109;53.570;10.084;2022-10-31T14:54:50;32.73;;;15.97;;
70560;SDS011;58109;53.570;10.084;2022-10-31T14:57:21;34.53;;;15.70;;
70560;SDS011;58109;53.570;10.084;2022-10-31T14:59:50;34.43;;;15.20;;
70560;SDS011;58109;53.570;10.084;2022-10-31T15:04:46;34.40;;;15.90;;
70560;SDS011;58109;53.570;10.084;2022-10-31T15:07:20;38.23;;;17.40;;
70560;SDS011;58109;53.570;10.084;2022-10-31T15:09:54;30.10;;;16.33;;
70560;SDS011;58109;53.570;10.084;2022-10-31T15:12:31;30.13;;;17.13;;
70560;SDS011;58109;53.570;10.084;2022-10-31T15:15:12;42.50;;;16.40;;
70560;SDS011;58109;53.570;10.084;2022-10-31T15:17:47;42.47;;;17.40;;
70560;SDS011;58109;53.570;10.084;2022-10-31T15:20:24;33.53;;;16.73;;
70560;SDS011;58109;53.570;10.084;2022-10-31T15:22:51;41.90;;;17.57;;
70560;SDS011;58109;53.570;10.084;2022-10-31T15:25:18;39.97;;;17.57;;
70560;SDS011;58109;53.570;10.084;2022-10-31T15:27:45;36.40;;;16.53;;
70560;SDS011;58109;53.570;10.084;2022-10-31T15:30:24;32.80;;;16.50;;
70560;SDS011;58109;53.570;10.084;2022-10-31T15:32:53;35.90;;;18.37;;
70560;SDS011;58109;53.570;10.084;2022-10-31T15:35:22;38.43;;;18.10;;
70560;SDS011;58109;53.570;10.084;2022-10-31T15:37:51;38.47;;;19.00;;
70560;SDS011;58109;53.570;10.084;2022-10-31T15:40:17;38.73;;;18.47;;
70560;SDS011;58109;53.570;10.084;2022-10-31T15:42:46;36.90;;;19.60;;
70560;SDS011;58109;53.570;10.084;2022-10-31T15:45:17;37.23;;;18.40;;
70560;SDS011;58109;53.570;10.084;2022-10-31T15:47:55;39.30;;;19.40;;
70560;SDS011;58109;53.570;10.084;2022-10-31T15:50:28;42.73;;;20.97;;
70560;SDS011;58109;53.570;10.084;2022-10-31T15:52:56;41.93;;;19.20;;
70560;SDS011;58109;53.570;10.084;2022-10-31T15:55:26;37.50;;;18.97;;
70560;SDS011;58109;53.570;10.084;2022-10-31T15:57:58;36.00;;;16.30;;
70560;SDS011;58109;53.570;10.084;2022-10-31T16:00:28;34.50;;;16.33;;
70560;SDS011;58109;53.570;10.084;2022-10-31T16:05:43;33.23;;;15.00;;
70560;SDS011;58109;53.570;10.084;2022-10-31T16:13:29;45.80;;;16.40;;
70560;SDS011;58109;53.570;10.084;2022-10-31T16:16:00;37.37;;;16.33;;
70560;SDS011;58109;53.570;10.084;2022-10-31T16:18:27;43.23;;;16.10;;
70560;SDS011;58109;53.570;10.084;2022-10-31T16:20:54;38.17;;;15.00;;
70560;SDS011;58109;53.570;10.084;2022-10-31T16:23:20;33.43;;;15.00;;
70560;SDS011;58109;53.570;10.084;2022-10-31T16:25:46;30.60;;;14.97;;
70560;SDS011;58109;53.570;10.084;2022-10-31T16:28:16;41.50;;;16.60;;
70560;SDS011;58109;53.570;10.084;2022-10-31T16:30:44;40.40;;;16.40;;
70560;SDS011;58109;53.570;10.084;2022-10-31T16:35:58;44.40;;;18.73;;
70560;SDS011;58109;53.570;10.084;2022-10-31T16:38:24;33.70;;;16.27;;
70560;SDS011;58109;53.570;10.084;2022-10-31T16:40:52;34.73;;;15.40;;
70560;SDS011;58109;53.570;10.084;2022-10-31T16:43:18;34.23;;;15.43;;
70560;SDS011;58109;53.570;10.084;2022-10-31T16:45:50;45.33;;;17.13;;
70560;SDS011;58109;53.570;10.084;2022-10-31T16:48:20;32.73;;;15.30;;
70560;SDS011;58109;53.570;10.084;2022-10-31T16:50:47;36.00;;;15.90;;
70560;SDS011;58109;53.570;10.084;2022-10-31T16:53:14;38.70;;;16.60;;
70560;SDS011;58109;53.570;10.084;2022-10-31T16:55:54;38.20;;;17.30;;
70560;SDS011;58109;53.570;10.084;2022-10-31T16:58:24;35.07;;;15.07;;
70560;SDS011;58109;53.570;10.084;2022-10-31T17:00:54;32.90;;;15.67;;